createdAt,value
2018-06-29T00:00:25.460Z,9.50
2018-06-29T00:02:54.240Z,11.80
2018-06-29T00:05:23.254Z,16.93
2018-06-29T00:07:52.041Z,12.63
2018-06-29T00:10:22.891Z,13.03
2018-06-29T00:12:52.301Z,11.87
2018-06-29T00:15:22.438Z,14.53
2018-06-29T00:17:51.511Z,15.17
2018-06-29T00:20:20.726Z,17.40
2018-06-29T00:22:49.879Z,11.10
2018-06-29T00:25:19.026Z,10.73
2018-06-29T00:27:47.679Z,11.83
2018-06-29T00:30:16.694Z,14.27
2018-06-29T00:32:45.805Z,21.63
2018-06-29T00:35:14.821Z,11.00
2018-06-29T00:37:43.533Z,13.63
2018-06-29T00:40:12.644Z,12.77
2018-06-29T00:42:41.529Z,11.85
2018-06-29T00:45:10.463Z,16.03
2018-06-29T00:47:39.260Z,11.73
2018-06-29T00:50:09.556Z,11.70
2018-06-29T00:52:38.596Z,10.83
2018-06-29T00:55:07.903Z,17.83
2018-06-29T00:57:37.321Z,11.00
2018-06-29T01:00:08.041Z,11.70
2018-06-29T01:02:36.840Z,15.05
2018-06-29T01:05:05.796Z,15.40
2018-06-29T01:07:34.916Z,11.45
2018-06-29T01:10:03.670Z,12.63
2018-06-29T01:12:32.466Z,16.83
2018-06-29T01:15:01.983Z,10.97
2018-06-29T01:17:31.089Z,10.77
2018-06-29T01:20:00.246Z,10.67
2018-06-29T01:22:28.974Z,10.73
2018-06-29T01:24:57.589Z,11.93
2018-06-29T01:27:27.040Z,10.10
2018-06-29T01:29:55.805Z,9.67
2018-06-29T01:32:24.504Z,9.38
2018-06-29T01:34:53.126Z,15.47
2018-06-29T01:37:22.039Z,19.67
2018-06-29T01:39:51.599Z,16.17
2018-06-29T01:42:20.263Z,15.10
2018-06-29T01:44:49.339Z,27.10
2018-06-29T01:47:18.086Z,12.20
2018-06-29T01:49:47.241Z,21.47
2018-06-29T01:52:16.143Z,12.37
2018-06-29T01:54:45.395Z,11.83
2018-06-29T01:57:14.349Z,16.27
2018-06-29T01:59:43.004Z,16.43
2018-06-29T02:02:12.003Z,12.27
2018-06-29T02:04:41.320Z,25.88
2018-06-29T02:07:09.883Z,12.63
2018-06-29T02:09:38.750Z,23.87
2018-06-29T02:12:07.629Z,30.67
2018-06-29T02:14:36.874Z,17.53
2018-06-29T02:17:05.421Z,14.38
2018-06-29T02:19:34.205Z,22.17
2018-06-29T02:22:02.924Z,21.93
2018-06-29T02:24:31.705Z,13.20
2018-06-29T02:27:00.383Z,12.57
2018-06-29T02:29:29.835Z,22.90
2018-06-29T02:31:58.440Z,39.30
2018-06-29T02:34:27.982Z,12.15
2018-06-29T02:36:56.636Z,13.17
2018-06-29T02:39:25.501Z,15.50
2018-06-29T02:41:54.585Z,15.63
2018-06-29T02:44:23.300Z,17.37
2018-06-29T02:46:52.144Z,18.37
2018-06-29T02:49:20.804Z,21.10
2018-06-29T02:51:49.610Z,12.47
2018-06-29T02:54:18.309Z,11.03
2018-06-29T02:56:46.872Z,11.57
2018-06-29T02:59:15.516Z,17.60
2018-06-29T03:01:44.219Z,20.30
2018-06-29T03:04:13.721Z,19.87
2018-06-29T03:06:42.600Z,16.80
2018-06-29T03:09:11.600Z,22.93
2018-06-29T03:11:40.200Z,13.73
2018-06-29T03:14:09.707Z,14.90
2018-06-29T03:16:38.386Z,13.00
2018-06-29T03:19:07.197Z,25.03
2018-06-29T03:21:36.090Z,16.50
2018-06-29T03:24:04.791Z,18.60
2018-06-29T03:26:34.041Z,16.57
2018-06-29T03:29:03.431Z,12.53
2018-06-29T03:31:32.327Z,11.73
2018-06-29T03:34:01.506Z,39.65
2018-06-29T03:36:30.929Z,18.12
2018-06-29T03:39:00.101Z,21.67
2018-06-29T03:41:28.968Z,13.43
2018-06-29T03:43:57.751Z,14.43
2018-06-29T03:46:26.666Z,25.87
2018-06-29T03:48:55.499Z,18.63
2018-06-29T03:51:24.830Z,25.33
2018-06-29T03:53:53.417Z,18.07
2018-06-29T03:56:23.001Z,14.70
2018-06-29T03:58:51.817Z,21.63
2018-06-29T04:01:21.264Z,12.20
2018-06-29T04:03:50.259Z,16.90
2018-06-29T04:06:19.188Z,19.70
2018-06-29T04:08:47.816Z,23.50
2018-06-29T04:11:17.185Z,21.60
2018-06-29T04:13:46.129Z,13.27
2018-06-29T04:16:14.812Z,27.93
2018-06-29T04:18:44.014Z,17.13
2018-06-29T04:21:12.724Z,12.37
2018-06-29T04:23:41.474Z,15.23
2018-06-29T04:26:10.302Z,17.00
2018-06-29T04:28:39.783Z,19.77
2018-06-29T04:31:08.720Z,11.43
2018-06-29T04:33:37.639Z,12.10
2018-06-29T04:36:07.207Z,15.67
2018-06-29T04:38:36.550Z,15.97
2018-06-29T04:41:05.249Z,12.85
2018-06-29T04:43:34.047Z,12.23
2018-06-29T04:46:03.184Z,13.67
2018-06-29T04:48:32.012Z,17.80
2018-06-29T04:51:00.753Z,12.20
2018-06-29T04:53:29.452Z,15.60
2018-06-29T04:55:58.134Z,16.47
2018-06-29T04:58:27.404Z,15.10
2018-06-29T05:00:56.512Z,16.37
2018-06-29T05:03:25.789Z,13.17
2018-06-29T05:05:54.585Z,27.97
2018-06-29T05:08:23.311Z,23.43
2018-06-29T05:10:52.344Z,16.03
2018-06-29T05:13:21.036Z,17.42
2018-06-29T05:15:49.826Z,13.40
2018-06-29T05:18:19.399Z,16.77
2018-06-29T05:20:48.305Z,17.77
2018-06-29T05:23:18.230Z,14.10
2018-06-29T05:25:46.916Z,12.23
2018-06-29T05:28:16.316Z,11.57
2018-06-29T05:30:46.550Z,15.13
2018-06-29T05:33:15.194Z,10.60
2018-06-29T05:35:43.864Z,10.00
2018-06-29T05:38:12.785Z,14.73
2018-06-29T05:40:41.812Z,16.27
2018-06-29T05:43:10.488Z,9.93
2018-06-29T05:45:40.271Z,10.30
2018-06-29T05:48:08.986Z,12.33
2018-06-29T05:50:37.860Z,10.80
2018-06-29T05:53:07.309Z,12.57
2018-06-29T05:55:35.859Z,8.80
2018-06-29T05:58:04.701Z,13.10
2018-06-29T06:00:33.890Z,7.47
2018-06-29T06:03:02.695Z,7.50
2018-06-29T06:05:31.465Z,10.90
2018-06-29T06:08:01.012Z,8.28
2018-06-29T06:10:29.808Z,10.30
2018-06-29T06:12:59.032Z,11.07
2018-06-29T06:15:28.385Z,9.03
2018-06-29T06:17:57.190Z,8.20
2018-06-29T06:20:28.331Z,12.07
2018-06-29T06:23:01.863Z,8.40
2018-06-29T06:25:30.998Z,14.00
2018-06-29T06:27:59.666Z,8.80
2018-06-29T06:30:28.497Z,7.93
2018-06-29T06:32:57.531Z,9.50
2018-06-29T06:35:26.206Z,8.20
2018-06-29T06:37:56.176Z,9.07
2018-06-29T06:40:24.788Z,9.10
2018-06-29T06:42:53.514Z,12.67
2018-06-29T06:45:22.433Z,9.20
2018-06-29T06:47:51.111Z,8.93
2018-06-29T06:50:20.022Z,13.60
2018-06-29T06:52:49.002Z,10.20
2018-06-29T06:55:17.763Z,8.10
2018-06-29T06:57:46.422Z,7.83
2018-06-29T07:00:15.652Z,12.87
2018-06-29T07:02:44.451Z,7.43
2018-06-29T07:05:13.613Z,7.37
2018-06-29T07:07:42.496Z,7.50
2018-06-29T07:10:11.518Z,8.50
2018-06-29T07:12:40.932Z,6.67
2018-06-29T07:15:09.823Z,8.17
2018-06-29T07:17:38.835Z,6.20
2018-06-29T07:20:09.335Z,6.20
2018-06-29T07:22:38.237Z,6.97
2018-06-29T07:25:07.118Z,7.73
2018-06-29T07:27:36.631Z,8.50
2018-06-29T07:30:06.903Z,6.23
2018-06-29T07:32:36.099Z,5.13
2018-06-29T07:35:05.338Z,9.63
2018-06-29T07:37:34.617Z,10.30
2018-06-29T07:40:03.488Z,6.13
2018-06-29T07:42:33.332Z,4.87
2018-06-29T07:45:02.396Z,4.90
2018-06-29T07:47:31.146Z,15.57
2018-06-29T07:50:00.678Z,7.33
2018-06-29T07:52:29.766Z,4.67
2018-06-29T07:54:59.096Z,4.05
2018-06-29T07:57:28.528Z,8.43
2018-06-29T07:59:57.632Z,4.85
2018-06-29T08:02:26.524Z,6.07
2018-06-29T08:04:56.074Z,4.60
2018-06-29T08:07:24.803Z,8.33
2018-06-29T08:09:53.599Z,4.80
2018-06-29T08:12:22.522Z,6.60
2018-06-29T08:14:51.312Z,5.67
2018-06-29T08:17:20.236Z,5.00
2018-06-29T08:19:49.356Z,14.43
2018-06-29T08:22:18.983Z,5.70
2018-06-29T08:24:58.731Z,9.13
2018-06-29T08:27:27.476Z,5.87
2018-06-29T08:29:56.339Z,6.47
2018-06-29T08:32:25.272Z,5.73
2018-06-29T08:34:54.556Z,12.40
2018-06-29T08:37:23.563Z,6.63
2018-06-29T08:39:52.991Z,7.10
2018-06-29T08:42:21.836Z,10.30
2018-06-29T08:44:50.547Z,6.93
2018-06-29T08:47:19.523Z,7.35
2018-06-29T08:49:48.517Z,6.07
2018-06-29T08:52:17.432Z,5.97
2018-06-29T08:54:46.362Z,9.60
2018-06-29T08:57:15.266Z,5.90
2018-06-29T08:59:43.896Z,6.80
2018-06-29T09:02:13.282Z,9.20
2018-06-29T09:04:42.177Z,8.17
2018-06-29T09:07:11.033Z,9.80
2018-06-29T09:09:40.668Z,5.83
2018-06-29T09:12:09.911Z,6.40
2018-06-29T09:14:38.915Z,6.70
2018-06-29T09:17:07.725Z,6.07
2018-06-29T09:19:36.653Z,6.42
2018-06-29T09:22:05.439Z,8.13
2018-06-29T09:24:35.042Z,6.77
2018-06-29T09:27:04.338Z,6.03
2018-06-29T09:29:33.314Z,5.60
2018-06-29T09:32:02.658Z,5.45
2018-06-29T09:34:31.613Z,13.07
2018-06-29T09:37:00.282Z,7.53
2018-06-29T09:39:29.296Z,7.60
2018-06-29T09:41:58.506Z,5.33
2018-06-29T09:44:27.393Z,5.90
2018-06-29T09:46:56.069Z,6.60
2018-06-29T09:49:25.283Z,5.20
2018-06-29T09:51:54.314Z,5.20
2018-06-29T09:54:23.872Z,10.20
2018-06-29T09:56:52.527Z,7.17
2018-06-29T09:59:21.904Z,5.50
2018-06-29T10:01:50.638Z,7.25
2018-06-29T10:04:19.871Z,6.27
2018-06-29T10:06:48.865Z,5.30
2018-06-29T10:09:18.050Z,6.80
2018-06-29T10:11:46.994Z,7.03
2018-06-29T10:14:16.566Z,6.90
2018-06-29T10:16:45.327Z,4.33
2018-06-29T10:19:14.948Z,5.20
2018-06-29T10:21:44.127Z,6.10
2018-06-29T10:24:13.821Z,8.10
2018-06-29T10:26:42.724Z,6.93
2018-06-29T10:29:11.552Z,8.97
2018-06-29T10:31:40.310Z,5.70
2018-06-29T10:34:09.232Z,4.28
2018-06-29T10:36:38.742Z,3.12
2018-06-29T10:39:10.812Z,4.50
2018-06-29T10:41:39.829Z,3.15
2018-06-29T10:44:08.743Z,4.53
2018-06-29T10:46:38.297Z,2.57
2018-06-29T10:49:07.827Z,5.94
2018-06-29T10:51:36.992Z,2.35
2018-06-29T10:54:06.035Z,2.55
2018-06-29T10:56:35.141Z,1.70
2018-06-29T10:59:04.253Z,2.05
2018-06-29T11:01:32.822Z,2.00
2018-06-29T11:04:01.841Z,5.07
2018-06-29T11:06:31.178Z,3.37
2018-06-29T11:08:59.967Z,4.97
2018-06-29T11:11:28.748Z,2.30
2018-06-29T11:13:57.739Z,3.62
2018-06-29T11:16:27.244Z,3.67
2018-06-29T11:18:55.950Z,2.75
2018-06-29T11:21:24.774Z,2.83
2018-06-29T11:23:53.723Z,3.05
2018-06-29T11:26:23.204Z,2.78
2018-06-29T11:28:52.163Z,4.55
2018-06-29T11:31:21.063Z,2.85
2018-06-29T11:33:49.653Z,4.10
2018-06-29T11:36:18.767Z,2.67
2018-06-29T11:38:48.228Z,4.93
2018-06-29T11:41:16.998Z,2.72
2018-06-29T11:43:46.573Z,5.37
2018-06-29T11:46:15.645Z,3.47
2018-06-29T11:48:44.387Z,2.40
2018-06-29T11:51:13.223Z,2.50
2018-06-29T11:53:42.327Z,2.10
2018-06-29T11:56:11.338Z,3.37
2018-06-29T11:58:40.229Z,2.30
2018-06-29T12:01:09.200Z,2.08
2018-06-29T12:03:38.379Z,8.23
2018-06-29T12:06:07.533Z,2.35
2018-06-29T12:08:37.309Z,4.87
2018-06-29T12:11:06.413Z,1.92
2018-06-29T12:13:35.428Z,2.87
2018-06-29T12:16:04.449Z,3.37
2018-06-29T12:18:34.018Z,1.55
2018-06-29T12:21:02.988Z,2.47
2018-06-29T12:23:32.310Z,2.83
2018-06-29T12:26:01.375Z,3.58
2018-06-29T12:28:30.921Z,4.47
2018-06-29T12:30:59.902Z,2.10
2018-06-29T12:33:29.157Z,7.28
2018-06-29T12:35:58.310Z,2.60
2018-06-29T12:38:27.128Z,10.60
2018-06-29T12:40:56.682Z,3.40
2018-06-29T12:43:26.079Z,3.63
2018-06-29T12:45:55.384Z,3.23
2018-06-29T12:48:24.350Z,3.80
2018-06-29T12:50:53.400Z,13.53
2018-06-29T12:53:22.245Z,3.83
2018-06-29T12:55:51.238Z,3.67
2018-06-29T12:58:21.291Z,6.37
2018-06-29T13:00:50.209Z,7.40
2018-06-29T13:03:18.902Z,5.63
2018-06-29T13:05:48.021Z,6.23
2018-06-29T13:08:17.151Z,5.73
2018-06-29T13:10:46.209Z,3.63
2018-06-29T13:13:15.470Z,4.42
2018-06-29T13:15:44.462Z,4.13
2018-06-29T13:18:14.124Z,4.10
2018-06-29T13:20:44.173Z,3.80
2018-06-29T13:23:13.604Z,4.33
2018-06-29T13:25:42.700Z,4.43
2018-06-29T13:28:11.835Z,4.10
2018-06-29T13:30:41.280Z,9.23
2018-06-29T13:33:10.660Z,4.00
2018-06-29T13:35:39.758Z,5.20
2018-06-29T13:38:08.974Z,8.13
2018-06-29T13:40:38.070Z,9.27
2018-06-29T13:43:07.439Z,3.40
2018-06-29T13:45:36.378Z,8.17
2018-06-29T13:48:05.733Z,3.30
2018-06-29T13:50:34.601Z,6.90
2018-06-29T13:53:04.144Z,5.33
2018-06-29T13:55:33.998Z,3.70
2018-06-29T13:58:03.720Z,4.30
2018-06-29T14:00:32.714Z,3.27
2018-06-29T14:03:01.908Z,3.00
2018-06-29T14:05:31.234Z,4.43
2018-06-29T14:08:00.114Z,3.47
2018-06-29T14:10:28.973Z,3.27
2018-06-29T14:12:57.973Z,3.97
2018-06-29T14:15:27.063Z,10.83
2018-06-29T14:17:55.975Z,3.90
2018-06-29T14:20:24.862Z,6.23
2018-06-29T14:22:53.791Z,3.20
2018-06-29T14:25:22.643Z,3.93
2018-06-29T14:27:51.268Z,3.87
2018-06-29T14:30:20.316Z,3.33
2018-06-29T14:32:49.137Z,3.10
2018-06-29T14:35:17.954Z,3.80
2018-06-29T14:37:46.805Z,3.60
2018-06-29T14:40:15.492Z,7.20
2018-06-29T14:42:44.299Z,3.27
2018-06-29T14:45:13.784Z,3.80
2018-06-29T14:47:43.409Z,3.17
2018-06-29T14:50:12.240Z,3.97
2018-06-29T14:52:41.525Z,5.63
2018-06-29T14:55:10.925Z,5.00
2018-06-29T14:57:39.853Z,4.17
2018-06-29T15:00:10.194Z,3.70
2018-06-29T15:02:39.406Z,3.87
2018-06-29T15:05:08.745Z,4.33
2018-06-29T15:07:37.494Z,4.10
2018-06-29T15:10:07.045Z,3.60
2018-06-29T15:12:36.659Z,5.60
2018-06-29T15:15:05.505Z,3.33
2018-06-29T15:17:35.718Z,3.93
2018-06-29T15:20:05.720Z,3.40
2018-06-29T15:22:34.252Z,3.97
2018-06-29T15:25:02.981Z,4.00
2018-06-29T15:27:32.864Z,5.00
2018-06-29T15:30:01.975Z,4.97
2018-06-29T15:32:30.625Z,3.67
2018-06-29T15:34:59.353Z,4.80
2018-06-29T15:37:28.225Z,3.43
2018-06-29T15:39:57.265Z,8.43
2018-06-29T15:42:26.043Z,3.80
2018-06-29T15:44:56.929Z,4.57
2018-06-29T15:47:26.445Z,9.00
2018-06-29T15:49:55.544Z,5.10
2018-06-29T15:52:24.774Z,4.20
2018-06-29T15:54:53.852Z,7.03
2018-06-29T15:57:22.559Z,5.33
2018-06-29T15:59:51.414Z,4.37
2018-06-29T16:02:20.335Z,6.87
2018-06-29T16:04:49.936Z,8.43
2018-06-29T16:07:19.169Z,9.28
2018-06-29T16:09:48.049Z,4.00
2018-06-29T16:12:16.794Z,5.27
2018-06-29T16:14:45.485Z,4.40
2018-06-29T16:17:14.135Z,4.67
2018-06-29T16:19:43.286Z,3.87
2018-06-29T16:22:12.229Z,23.60
2018-06-29T16:24:41.751Z,5.57
2018-06-29T16:27:11.380Z,4.23
2018-06-29T16:29:40.190Z,5.63
2018-06-29T16:32:09.320Z,10.20
2018-06-29T16:34:38.350Z,5.00
2018-06-29T16:37:07.072Z,4.20
2018-06-29T16:39:35.910Z,4.12
2018-06-29T16:42:04.591Z,4.07
2018-06-29T16:44:33.845Z,4.28
2018-06-29T16:47:03.192Z,4.67
2018-06-29T16:49:32.048Z,4.97
2018-06-29T16:52:01.400Z,8.23
2018-06-29T16:54:30.171Z,3.67
2018-06-29T16:56:59.302Z,4.10
2018-06-29T16:59:28.520Z,4.43
2018-06-29T17:01:57.197Z,4.93
2018-06-29T17:04:26.337Z,4.53
2018-06-29T17:06:55.603Z,6.03
2018-06-29T17:09:24.539Z,5.30
2018-06-29T17:11:54.200Z,8.40
2018-06-29T17:14:22.927Z,4.03
2018-06-29T17:16:52.675Z,4.10
2018-06-29T17:19:21.890Z,4.70
2018-06-29T17:21:51.125Z,9.00
2018-06-29T17:24:20.188Z,4.70
2018-06-29T17:26:49.128Z,5.53
2018-06-29T17:29:18.083Z,9.33
2018-06-29T17:31:46.945Z,9.87
2018-06-29T17:34:15.784Z,6.73
2018-06-29T17:36:44.526Z,4.23
2018-06-29T17:39:13.544Z,4.63
2018-06-29T17:41:42.405Z,4.77
2018-06-29T17:44:12.089Z,5.00
2018-06-29T17:46:41.343Z,6.67
2018-06-29T17:49:10.585Z,4.30
2018-06-29T17:51:39.796Z,4.87
2018-06-29T17:54:09.123Z,3.87
2018-06-29T17:56:39.234Z,4.53
2018-06-29T17:59:08.565Z,5.55
2018-06-29T18:01:37.834Z,4.33
2018-06-29T18:04:07.036Z,7.90
2018-06-29T18:06:36.352Z,10.93
2018-06-29T18:09:08.093Z,7.83
2018-06-29T18:11:37.724Z,6.13
2018-06-29T18:14:07.049Z,4.65
2018-06-29T18:16:36.044Z,4.67
2018-06-29T18:19:05.389Z,5.17
2018-06-29T18:21:34.337Z,5.13
2018-06-29T18:24:04.053Z,3.90
2018-06-29T18:26:33.642Z,4.90
2018-06-29T18:29:03.097Z,8.50
2018-06-29T18:31:32.103Z,4.80
2018-06-29T18:34:01.615Z,4.87
2018-06-29T18:36:30.815Z,4.30
2018-06-29T18:38:59.966Z,4.97
2018-06-29T18:41:29.326Z,5.60
2018-06-29T18:43:58.774Z,11.17
2018-06-29T18:46:28.817Z,6.33
2018-06-29T18:48:59.036Z,4.60
2018-06-29T18:51:28.107Z,5.87
2018-06-29T18:53:57.281Z,5.53
2018-06-29T18:56:26.457Z,4.83
2018-06-29T18:58:55.691Z,5.67
2018-06-29T19:01:25.205Z,7.33
2018-06-29T19:03:55.082Z,7.80
2018-06-29T19:06:24.320Z,5.53
2018-06-29T19:08:53.685Z,8.30
2018-06-29T19:11:23.663Z,5.33
2018-06-29T19:13:53.285Z,5.13
2018-06-29T19:16:23.506Z,5.15
2018-06-29T19:18:52.395Z,5.03
2018-06-29T19:21:21.484Z,10.73
2018-06-29T19:23:50.591Z,5.20
2018-06-29T19:26:19.906Z,9.43
2018-06-29T19:28:49.056Z,5.23
2018-06-29T19:31:18.373Z,6.23
2018-06-29T19:33:47.560Z,5.80
2018-06-29T19:36:16.366Z,5.90
2018-06-29T19:38:45.348Z,6.53
2018-06-29T19:41:14.187Z,6.00
2018-06-29T19:43:43.090Z,7.10
2018-06-29T19:46:11.896Z,6.33
2018-06-29T19:48:40.830Z,6.97
2018-06-29T19:51:10.187Z,6.83
2018-06-29T19:53:39.224Z,15.43
2018-06-29T19:56:08.599Z,7.70
2018-06-29T19:58:38.326Z,8.67
2018-06-29T20:01:08.301Z,7.67
2018-06-29T20:03:37.186Z,7.73
2018-06-29T20:06:06.455Z,7.23
2018-06-29T20:08:35.700Z,7.10
2018-06-29T20:11:04.540Z,7.80
2018-06-29T20:13:33.475Z,6.87
2018-06-29T20:16:02.450Z,6.73
2018-06-29T20:18:31.437Z,7.95
2018-06-29T20:21:00.831Z,7.40
2018-06-29T20:23:30.056Z,7.97
2018-06-29T20:25:59.215Z,10.75
2018-06-29T20:28:28.107Z,7.53
2018-06-29T20:30:57.769Z,7.13
2018-06-29T20:33:26.575Z,9.37
2018-06-29T20:35:56.115Z,7.80
2018-06-29T20:38:25.375Z,7.57
2018-06-29T20:40:54.525Z,10.37
2018-06-29T20:43:23.916Z,24.63
2018-06-29T20:45:52.915Z,7.57
2018-06-29T20:48:22.262Z,7.67
2018-06-29T20:50:51.365Z,9.95
2018-06-29T20:53:21.856Z,11.40
2018-06-29T20:55:50.826Z,8.37
2018-06-29T20:58:20.137Z,7.90
2018-06-29T21:00:49.437Z,7.12
2018-06-29T21:03:18.187Z,6.83
2018-06-29T21:05:47.810Z,8.90
2018-06-29T21:08:16.898Z,10.53
2018-06-29T21:10:45.870Z,8.20
2018-06-29T21:13:14.550Z,7.00
2018-06-29T21:15:43.692Z,9.50
2018-06-29T21:18:12.667Z,9.43
2018-06-29T21:20:42.190Z,7.37
2018-06-29T21:23:10.992Z,9.75
2018-06-29T21:25:40.615Z,8.80
2018-06-29T21:28:09.635Z,10.35
2018-06-29T21:30:38.601Z,8.73
2018-06-29T21:33:08.166Z,11.43
2018-06-29T21:35:36.772Z,9.17
2018-06-29T21:38:05.750Z,7.80
2018-06-29T21:40:34.756Z,8.57
2018-06-29T21:43:03.901Z,16.10
2018-06-29T21:45:32.720Z,8.13
2018-06-29T21:48:01.528Z,8.83
2018-06-29T21:50:30.326Z,14.10
2018-06-29T21:52:59.220Z,9.27
2018-06-29T21:55:28.167Z,13.53
2018-06-29T21:57:57.665Z,11.67
2018-06-29T22:00:31.754Z,8.58
2018-06-29T22:03:04.708Z,9.93
2018-06-29T22:05:33.792Z,8.68
2018-06-29T22:08:02.531Z,10.67
2018-06-29T22:10:31.429Z,9.55
2018-06-29T22:13:00.277Z,8.70
2018-06-29T22:15:29.133Z,8.87
2018-06-29T22:17:57.721Z,10.23
2018-06-29T22:20:26.472Z,10.40
2018-06-29T22:22:55.516Z,11.57
2018-06-29T22:25:24.455Z,9.70
2018-06-29T22:27:53.201Z,8.33
2018-06-29T22:30:22.202Z,9.93
2018-06-29T22:32:51.806Z,9.07
2018-06-29T22:35:21.682Z,9.07
2018-06-29T22:37:50.556Z,10.47
2018-06-29T22:40:20.113Z,11.17
2018-06-29T22:42:49.798Z,10.95
2018-06-29T22:45:18.537Z,8.97
2018-06-29T22:47:47.731Z,10.30
2018-06-29T22:50:16.986Z,9.50
2018-06-29T22:52:46.318Z,10.10
2018-06-29T22:55:15.320Z,11.23
2018-06-29T22:57:44.154Z,10.23
2018-06-29T23:00:12.898Z,10.00
2018-06-29T23:02:42.217Z,9.90
2018-06-29T23:05:11.282Z,10.00
2018-06-29T23:07:40.201Z,9.83
2018-06-29T23:10:08.868Z,12.25
2018-06-29T23:12:37.673Z,10.00
2018-06-29T23:15:06.617Z,9.85
2018-06-29T23:17:35.468Z,10.63
2018-06-29T23:20:04.754Z,14.80
2018-06-29T23:22:34.277Z,12.97
2018-06-29T23:25:04.172Z,11.47
2018-06-29T23:27:32.967Z,11.07
2018-06-29T23:30:01.695Z,11.57
2018-06-29T23:32:30.399Z,10.20
2018-06-29T23:34:59.008Z,10.63
2018-06-29T23:37:28.443Z,10.07
2018-06-29T23:39:57.141Z,11.77
2018-06-29T23:42:26.438Z,11.60
2018-06-29T23:44:55.146Z,10.70
2018-06-29T23:47:24.193Z,10.60
2018-06-29T23:49:53.566Z,11.60
2018-06-29T23:52:22.631Z,11.90
2018-06-29T23:54:51.556Z,13.53
2018-06-29T23:57:20.357Z,11.83
2018-06-29T23:59:49.301Z,12.60
